createdAt,value
2019-03-21T00:01:22.239Z,3.00
2019-03-21T00:04:02.795Z,3.00
2019-03-21T00:06:53.871Z,3.00
2019-03-21T00:10:29.250Z,3.00
2019-03-21T00:13:29.120Z,3.00
2019-03-21T00:16:42.355Z,3.10
2019-03-21T00:19:52.639Z,3.10
2019-03-21T00:22:27.070Z,3.10
2019-03-21T00:25:00.361Z,3.10
2019-03-21T00:27:34.619Z,3.10
2019-03-21T00:30:09.063Z,3.20
2019-03-21T00:32:42.635Z,3.20
2019-03-21T00:35:13.778Z,3.10
2019-03-21T00:37:45.335Z,3.20
2019-03-21T00:40:23.262Z,3.30
2019-03-21T00:43:00.831Z,3.20
2019-03-21T00:45:43.943Z,3.30
2019-03-21T00:48:18.691Z,3.30
2019-03-21T00:50:50.068Z,3.40
2019-03-21T00:53:20.914Z,3.40
2019-03-21T00:55:57.886Z,3.30
2019-03-21T00:58:32.063Z,3.30
2019-03-21T01:01:10.463Z,3.20
2019-03-21T01:03:44.926Z,3.20
2019-03-21T01:06:19.207Z,3.20
2019-03-21T01:08:51.720Z,3.30
2019-03-21T01:11:22.667Z,3.30
2019-03-21T01:13:54.858Z,3.30
2019-03-21T01:16:30.274Z,3.30
2019-03-21T01:19:26.722Z,3.30
2019-03-21T01:22:03.538Z,3.30
2019-03-21T01:24:42.016Z,3.30
2019-03-21T01:27:18.402Z,3.30
2019-03-21T01:29:54.215Z,3.30
2019-03-21T01:32:30.926Z,3.30
2019-03-21T01:35:05.445Z,3.20
2019-03-21T01:37:42.183Z,3.10
2019-03-21T01:40:20.967Z,3.00
2019-03-21T01:42:59.942Z,3.00
2019-03-21T01:45:37.249Z,2.90
2019-03-21T01:48:13.545Z,2.80
2019-03-21T01:50:49.823Z,2.80
2019-03-21T01:53:25.598Z,2.80
2019-03-21T01:56:04.091Z,2.70
2019-03-21T01:58:40.487Z,2.80
2019-03-21T02:01:14.980Z,2.80
2019-03-21T02:03:53.147Z,2.90
2019-03-21T02:06:25.832Z,3.00
2019-03-21T02:08:57.030Z,3.00
2019-03-21T02:11:32.426Z,3.10
2019-03-21T02:14:09.319Z,3.20
2019-03-21T02:16:45.568Z,3.30
2019-03-21T02:19:20.995Z,3.40
2019-03-21T02:21:54.090Z,3.40
2019-03-21T02:24:27.055Z,3.50
2019-03-21T02:27:11.420Z,3.50
2019-03-21T02:29:50.815Z,3.70
2019-03-21T02:32:44.379Z,3.70
2019-03-21T02:35:57.537Z,3.70
2019-03-21T02:39:06.290Z,3.80
2019-03-21T02:41:40.295Z,3.80
2019-03-21T02:44:11.611Z,3.80
2019-03-21T02:46:46.432Z,3.80
2019-03-21T02:49:21.201Z,3.80
2019-03-21T02:51:59.199Z,3.80
2019-03-21T02:54:37.768Z,3.80
2019-03-21T02:57:12.096Z,3.80
2019-03-21T02:59:44.927Z,3.80
2019-03-21T03:02:44.420Z,3.80
2019-03-21T03:05:21.382Z,3.80
2019-03-21T03:07:54.367Z,3.70
2019-03-21T03:10:37.580Z,3.60
2019-03-21T03:13:33.237Z,3.60
2019-03-21T03:16:35.711Z,3.60
2019-03-21T03:19:47.265Z,3.60
2019-03-21T03:22:24.512Z,3.60
2019-03-21T03:24:58.039Z,3.60
2019-03-21T03:27:33.857Z,3.70
2019-03-21T03:30:09.343Z,3.70
2019-03-21T03:32:43.618Z,3.70
2019-03-21T03:35:18.208Z,3.70
2019-03-21T03:37:53.665Z,3.70
2019-03-21T03:40:30.657Z,3.70
2019-03-21T03:43:07.880Z,3.60
2019-03-21T03:45:44.320Z,3.60
2019-03-21T03:48:15.971Z,3.60
2019-03-21T03:50:48.983Z,3.60
2019-03-21T03:53:20.185Z,3.60
2019-03-21T03:55:55.075Z,3.70
2019-03-21T03:58:30.538Z,3.60
2019-03-21T04:01:07.007Z,3.60
2019-03-21T04:03:39.117Z,3.60
2019-03-21T04:06:14.142Z,3.60
2019-03-21T04:08:49.012Z,3.70
2019-03-21T04:11:20.514Z,3.70
2019-03-21T04:13:51.243Z,3.70
2019-03-21T04:16:30.412Z,3.70
2019-03-21T04:19:12.065Z,3.70
2019-03-21T04:21:54.430Z,3.70
2019-03-21T04:24:39.778Z,3.80
2019-03-21T04:27:49.545Z,3.80
2019-03-21T04:30:24.764Z,3.80
2019-03-21T04:32:57.119Z,3.80
2019-03-21T04:35:32.575Z,3.70
2019-03-21T04:38:10.151Z,3.60
2019-03-21T04:40:49.984Z,3.60
2019-03-21T04:43:26.472Z,3.60
2019-03-21T04:46:03.584Z,3.50
2019-03-21T04:48:37.831Z,3.50
2019-03-21T04:51:11.375Z,3.40
2019-03-21T04:53:45.343Z,3.30
2019-03-21T04:56:21.859Z,3.30
2019-03-21T04:58:56.190Z,3.30
2019-03-21T05:01:29.506Z,3.20
2019-03-21T05:04:05.122Z,3.30
2019-03-21T05:06:41.187Z,3.30
2019-03-21T05:09:20.347Z,3.30
2019-03-21T05:11:57.662Z,3.30
2019-03-21T05:14:33.062Z,3.30
2019-03-21T05:17:16.224Z,3.30
2019-03-21T05:19:58.936Z,3.40
2019-03-21T05:22:34.631Z,3.50
2019-03-21T05:25:10.817Z,3.50
2019-03-21T05:27:45.847Z,3.60
2019-03-21T05:30:24.159Z,3.70
2019-03-21T05:33:10.719Z,3.80
2019-03-21T05:36:00.294Z,4.00
2019-03-21T05:38:42.272Z,4.10
2019-03-21T05:41:12.889Z,4.20
2019-03-21T05:43:47.068Z,4.30
2019-03-21T05:46:46.051Z,4.40
2019-03-21T05:49:23.251Z,4.50
2019-03-21T05:51:56.002Z,4.60
2019-03-21T05:54:27.263Z,4.60
2019-03-21T05:56:58.106Z,4.60
2019-03-21T05:59:36.682Z,4.60
2019-03-21T06:02:38.751Z,4.70
2019-03-21T06:05:42.387Z,4.70
2019-03-21T06:08:25.228Z,4.70
2019-03-21T06:11:01.670Z,4.70
2019-03-21T06:13:40.068Z,4.70
2019-03-21T06:16:21.739Z,4.70
2019-03-21T06:19:16.062Z,4.70
2019-03-21T06:22:23.310Z,4.70
2019-03-21T06:25:40.357Z,4.70
2019-03-21T06:28:50.687Z,4.70
2019-03-21T06:31:24.355Z,4.80
2019-03-21T06:33:59.226Z,4.80
2019-03-21T06:36:35.166Z,4.90
2019-03-21T06:39:13.923Z,4.90
2019-03-21T06:41:52.455Z,5.00
2019-03-21T06:44:28.475Z,5.10
2019-03-21T06:47:02.118Z,5.10
2019-03-21T06:49:34.920Z,5.20
2019-03-21T06:52:12.288Z,5.40
2019-03-21T06:54:47.724Z,5.40
2019-03-21T06:57:19.751Z,5.50
2019-03-21T06:59:52.525Z,5.60
2019-03-21T07:02:23.143Z,5.60
2019-03-21T07:04:58.046Z,5.70
2019-03-21T07:07:34.343Z,5.70
2019-03-21T07:10:14.310Z,5.70
2019-03-21T07:12:49.824Z,5.80
2019-03-21T07:15:25.054Z,5.80
2019-03-21T07:18:02.501Z,5.90
2019-03-21T07:20:36.063Z,5.90
2019-03-21T07:23:09.175Z,5.90
2019-03-21T07:25:41.738Z,5.90
2019-03-21T07:28:15.526Z,6.00
2019-03-21T07:30:45.878Z,6.10
2019-03-21T07:33:17.863Z,6.10
2019-03-21T07:35:51.199Z,6.20
2019-03-21T07:38:26.527Z,6.20
2019-03-21T07:41:00.450Z,6.40
2019-03-21T07:43:37.698Z,6.50
2019-03-21T07:46:11.392Z,6.60
2019-03-21T07:48:46.164Z,6.60
2019-03-21T07:51:17.299Z,6.70
2019-03-21T07:53:50.626Z,6.70
2019-03-21T07:56:24.947Z,6.80
2019-03-21T07:58:57.714Z,6.80
2019-03-21T08:01:31.624Z,6.80
2019-03-21T08:04:06.979Z,6.80
2019-03-21T08:06:43.566Z,6.90
2019-03-21T08:09:19.875Z,7.00
2019-03-21T08:11:52.328Z,7.00
2019-03-21T08:14:23.438Z,7.10
2019-03-21T08:16:58.916Z,7.30
2019-03-21T08:19:35.142Z,7.30
2019-03-21T08:22:10.236Z,7.40
2019-03-21T08:24:43.947Z,7.40
2019-03-21T08:27:20.958Z,7.50
2019-03-21T08:29:56.927Z,7.50
2019-03-21T08:32:32.296Z,7.60
2019-03-21T08:35:07.455Z,7.60
2019-03-21T08:37:42.883Z,7.70
2019-03-21T08:40:15.423Z,7.80
2019-03-21T08:42:48.290Z,7.80
2019-03-21T08:45:22.943Z,7.80
2019-03-21T08:47:55.203Z,7.90
2019-03-21T08:50:28.042Z,8.00
2019-03-21T08:52:59.171Z,8.00
2019-03-21T08:55:32.709Z,8.10
2019-03-21T08:58:02.755Z,8.20
2019-03-21T09:00:36.995Z,8.30
2019-03-21T09:03:11.135Z,8.40
2019-03-21T09:05:48.160Z,8.50
2019-03-21T09:08:25.171Z,8.50
2019-03-21T09:10:57.641Z,8.50
2019-03-21T09:13:32.936Z,8.50
2019-03-21T09:16:06.854Z,8.50
2019-03-21T09:18:43.302Z,8.50
2019-03-21T09:21:20.034Z,8.50
2019-03-21T09:23:54.723Z,8.50
2019-03-21T09:26:27.522Z,8.60
2019-03-21T09:29:06.941Z,8.60
2019-03-21T09:31:42.476Z,8.60
2019-03-21T09:34:16.547Z,8.60
2019-03-21T09:36:50.856Z,8.60
2019-03-21T09:39:25.827Z,8.60
2019-03-21T09:41:59.530Z,8.60
2019-03-21T09:44:37.583Z,8.70
2019-03-21T09:47:11.520Z,8.70
2019-03-21T09:49:46.767Z,8.70
2019-03-21T09:52:22.507Z,8.70
2019-03-21T09:55:00.991Z,8.70
2019-03-21T09:57:37.435Z,8.70
2019-03-21T10:00:14.047Z,8.80
2019-03-21T10:02:51.495Z,8.80
2019-03-21T10:05:23.234Z,8.70
2019-03-21T10:07:59.463Z,8.80
2019-03-21T10:10:36.275Z,8.80
2019-03-21T10:13:12.988Z,8.80
2019-03-21T10:15:50.054Z,8.90
2019-03-21T10:18:31.558Z,8.90
2019-03-21T10:21:05.412Z,9.00
2019-03-21T10:23:36.758Z,9.10
2019-03-21T10:26:09.029Z,9.10
2019-03-21T10:28:42.446Z,9.10
2019-03-21T10:31:16.831Z,9.10
2019-03-21T10:33:53.407Z,9.20
2019-03-21T10:36:28.003Z,9.30
2019-03-21T10:39:04.227Z,9.30
2019-03-21T10:41:37.151Z,9.40
2019-03-21T10:44:12.486Z,9.40
2019-03-21T10:46:46.087Z,9.40
2019-03-21T10:49:18.859Z,9.40
2019-03-21T10:51:55.173Z,9.40
2019-03-21T10:54:31.135Z,9.50
2019-03-21T10:57:06.316Z,9.50
2019-03-21T10:59:38.606Z,9.60
2019-03-21T11:02:10.597Z,9.70
2019-03-21T11:04:45.313Z,9.80
2019-03-21T11:07:16.095Z,9.80
2019-03-21T11:09:52.323Z,9.90
2019-03-21T11:12:31.841Z,9.90
2019-03-21T11:15:08.202Z,10.00
2019-03-21T11:17:42.689Z,10.00
2019-03-21T11:20:20.703Z,10.00
2019-03-21T11:22:55.893Z,10.10
2019-03-21T11:25:32.391Z,10.20
2019-03-21T11:28:08.927Z,10.30
2019-03-21T11:30:45.982Z,10.30
2019-03-21T11:33:21.311Z,10.40
2019-03-21T11:35:53.791Z,10.40
2019-03-21T11:38:28.963Z,10.50
2019-03-21T11:41:05.470Z,10.50
2019-03-21T11:43:41.968Z,10.50
2019-03-21T11:46:17.219Z,10.50
2019-03-21T11:48:52.650Z,10.50
2019-03-21T11:51:24.413Z,10.40
2019-03-21T11:53:59.935Z,10.30
2019-03-21T11:56:46.663Z,10.30
2019-03-21T11:59:46.255Z,10.30
2019-03-21T12:02:09.000Z,10.30
2019-03-21T12:04:46.432Z,10.30
2019-03-21T12:07:21.043Z,10.30
2019-03-21T12:09:57.312Z,10.40
2019-03-21T12:12:30.379Z,10.40
2019-03-21T12:15:05.094Z,10.40
2019-03-21T12:17:42.270Z,10.40
2019-03-21T12:20:18.439Z,10.40
2019-03-21T12:22:53.796Z,10.30
2019-03-21T12:25:29.314Z,10.30
2019-03-21T12:28:02.651Z,10.30
2019-03-21T12:30:42.166Z,10.40
2019-03-21T12:33:19.263Z,10.40
2019-03-21T12:35:52.752Z,10.40
2019-03-21T12:38:26.059Z,10.40
2019-03-21T12:41:02.142Z,10.40
2019-03-21T12:43:35.090Z,10.20
2019-03-21T12:46:06.472Z,10.10
2019-03-21T12:48:41.739Z,10.00
2019-03-21T12:51:17.279Z,10.00
2019-03-21T12:53:54.855Z,9.90
2019-03-21T12:56:26.923Z,9.90
2019-03-21T12:59:01.544Z,9.80
2019-03-21T13:01:36.109Z,9.80
2019-03-21T13:04:09.650Z,9.70
2019-03-21T13:06:42.123Z,9.70
2019-03-21T13:09:41.219Z,9.60
2019-03-21T13:12:20.895Z,9.60
2019-03-21T13:14:55.455Z,9.60
2019-03-21T13:17:31.838Z,9.60
2019-03-21T13:20:05.582Z,9.60
2019-03-21T13:22:40.395Z,9.50
2019-03-21T13:25:14.943Z,9.50
2019-03-21T13:27:50.469Z,9.40
2019-03-21T13:30:26.310Z,9.30
2019-03-21T13:33:00.388Z,9.30
2019-03-21T13:35:33.150Z,9.40
2019-03-21T13:38:04.274Z,9.40
2019-03-21T13:40:37.252Z,9.30
2019-03-21T13:43:11.779Z,9.40
2019-03-21T13:45:48.991Z,9.30
2019-03-21T13:48:21.875Z,9.30
2019-03-21T13:50:53.522Z,9.40
2019-03-21T13:53:27.214Z,9.50
2019-03-21T13:56:05.470Z,9.50
2019-03-21T13:58:40.927Z,9.50
2019-03-21T14:01:40.829Z,9.60
2019-03-21T14:04:29.921Z,9.60
2019-03-21T14:07:07.659Z,9.70
2019-03-21T14:09:45.485Z,9.70
2019-03-21T14:12:19.363Z,9.70
2019-03-21T14:14:54.019Z,9.80
2019-03-21T14:17:29.707Z,9.80
2019-03-21T14:20:02.464Z,9.80
2019-03-21T14:22:36.835Z,9.80
2019-03-21T14:25:15.086Z,9.70
2019-03-21T14:27:53.563Z,9.60
2019-03-21T14:30:35.774Z,9.60
2019-03-21T14:33:21.763Z,9.50
2019-03-21T14:36:13.410Z,9.50
2019-03-21T14:38:50.117Z,9.40
2019-03-21T14:41:21.698Z,9.40
2019-03-21T14:43:52.782Z,9.30
2019-03-21T14:46:26.434Z,9.20
2019-03-21T14:49:01.283Z,9.20
2019-03-21T14:51:35.812Z,9.20
2019-03-21T14:54:09.889Z,9.20
2019-03-21T14:56:41.630Z,9.20
2019-03-21T14:59:16.223Z,9.20
2019-03-21T15:01:50.656Z,9.30
2019-03-21T15:04:27.166Z,9.30
2019-03-21T15:07:00.064Z,9.30
2019-03-21T15:09:34.157Z,9.40
2019-03-21T15:12:11.461Z,9.40
2019-03-21T15:14:47.935Z,9.50
2019-03-21T15:17:19.275Z,9.40
2019-03-21T15:19:50.114Z,9.40
2019-03-21T15:22:22.599Z,9.40
2019-03-21T15:24:58.943Z,9.40
2019-03-21T15:27:34.368Z,9.40
2019-03-21T15:30:09.071Z,9.40
2019-03-21T15:32:41.998Z,9.30
2019-03-21T15:35:14.648Z,9.30
2019-03-21T15:37:47.239Z,9.30
2019-03-21T15:40:21.220Z,9.20
2019-03-21T15:42:57.017Z,9.20
2019-03-21T15:45:33.253Z,9.10
2019-03-21T15:48:10.048Z,9.10
2019-03-21T15:51:03.881Z,9.20
2019-03-21T15:53:27.081Z,9.20
2019-03-21T15:55:56.954Z,9.20
2019-03-21T15:58:49.219Z,9.20
2019-03-21T16:01:19.346Z,9.20
2019-03-21T16:03:53.564Z,9.10
2019-03-21T16:06:28.880Z,9.10
2019-03-21T16:09:01.677Z,9.10
2019-03-21T16:11:36.839Z,9.10
2019-03-21T16:14:12.415Z,9.00
2019-03-21T16:16:46.821Z,9.00
2019-03-21T16:19:21.634Z,8.90
2019-03-21T16:21:55.935Z,9.00
2019-03-21T16:24:27.575Z,8.90
2019-03-21T16:27:00.963Z,8.90
2019-03-21T16:29:33.795Z,8.80
2019-03-21T16:32:06.379Z,8.80
2019-03-21T16:34:39.715Z,8.70
2019-03-21T16:37:18.943Z,8.60
2019-03-21T16:39:50.883Z,8.60
2019-03-21T16:42:22.307Z,8.50
2019-03-21T16:44:59.228Z,8.50
2019-03-21T16:47:34.719Z,8.40
2019-03-21T16:50:10.719Z,8.30
2019-03-21T16:52:45.067Z,8.30
2019-03-21T16:55:16.188Z,8.20
2019-03-21T16:57:49.194Z,8.10
2019-03-21T17:00:24.705Z,8.00
2019-03-21T17:02:58.687Z,8.00
2019-03-21T17:05:30.423Z,7.80
2019-03-21T17:08:11.009Z,7.80
2019-03-21T17:10:41.863Z,7.80
2019-03-21T17:13:18.259Z,7.70
2019-03-21T17:15:51.632Z,7.60
2019-03-21T17:18:23.828Z,7.50
2019-03-21T17:20:54.759Z,7.40
2019-03-21T17:23:25.575Z,7.30
2019-03-21T17:25:58.043Z,7.20
2019-03-21T17:28:31.270Z,7.10
2019-03-21T17:31:07.720Z,7.00
2019-03-21T17:33:47.291Z,6.90
2019-03-21T17:36:22.648Z,6.90
2019-03-21T17:38:57.951Z,6.80
2019-03-21T17:41:33.326Z,6.70
2019-03-21T17:44:07.716Z,6.60
2019-03-21T17:46:40.446Z,6.60
2019-03-21T17:49:16.867Z,6.60
2019-03-21T17:51:51.619Z,6.60
2019-03-21T17:54:23.115Z,6.60
2019-03-21T17:56:53.896Z,6.60
2019-03-21T17:59:29.343Z,6.50
2019-03-21T18:02:23.414Z,6.40
2019-03-21T18:04:58.943Z,6.30
2019-03-21T18:07:34.400Z,6.10
2019-03-21T18:10:09.731Z,6.10
2019-03-21T18:12:40.835Z,6.00
2019-03-21T18:15:12.608Z,6.00
2019-03-21T18:17:45.119Z,5.90
2019-03-21T18:20:20.606Z,5.80
2019-03-21T18:22:55.967Z,5.80
2019-03-21T18:25:28.081Z,5.70
2019-03-21T18:27:59.846Z,5.60
2019-03-21T18:30:31.287Z,5.60
2019-03-21T18:33:11.119Z,5.50
2019-03-21T18:35:46.673Z,5.50
2019-03-21T18:38:19.983Z,5.50
2019-03-21T18:40:53.639Z,5.50
2019-03-21T18:43:28.863Z,5.60
2019-03-21T18:46:03.053Z,5.70
2019-03-21T18:48:37.438Z,5.80
2019-03-21T18:51:11.015Z,5.90
2019-03-21T18:53:44.583Z,6.10
2019-03-21T18:56:18.194Z,6.30
2019-03-21T18:58:48.757Z,6.40
2019-03-21T19:01:19.751Z,6.60
2019-03-21T19:03:55.716Z,6.80
2019-03-21T19:06:26.470Z,7.00
2019-03-21T19:08:59.327Z,7.20
2019-03-21T19:11:33.948Z,7.40
2019-03-21T19:14:07.431Z,7.60
2019-03-21T19:16:45.891Z,7.60
2019-03-21T19:19:21.247Z,7.60
2019-03-21T19:21:55.679Z,7.50
2019-03-21T19:24:26.509Z,7.40
2019-03-21T19:26:57.918Z,7.30
2019-03-21T19:29:33.359Z,7.20
2019-03-21T19:32:06.906Z,7.20
2019-03-21T19:34:39.938Z,7.10
2019-03-21T19:37:15.267Z,7.00
2019-03-21T19:39:50.956Z,7.00
2019-03-21T19:42:26.151Z,6.90
2019-03-21T19:45:04.319Z,6.90
2019-03-21T19:47:36.843Z,6.80
2019-03-21T19:50:12.959Z,6.80
2019-03-21T19:52:46.857Z,6.80
2019-03-21T19:55:30.788Z,6.80
2019-03-21T19:57:58.351Z,6.70
2019-03-21T20:00:35.426Z,6.70
2019-03-21T20:03:09.834Z,6.60
2019-03-21T20:05:41.009Z,6.50
2019-03-21T20:08:12.151Z,6.50
2019-03-21T20:10:43.279Z,6.40
2019-03-21T20:13:19.682Z,6.40
2019-03-21T20:15:56.959Z,6.40
2019-03-21T20:18:31.267Z,6.30
2019-03-21T20:21:08.134Z,6.30
2019-03-21T20:23:41.851Z,6.20
2019-03-21T20:26:17.151Z,6.20
2019-03-21T20:28:52.511Z,6.20
2019-03-21T20:31:28.427Z,6.20
2019-03-21T20:34:00.704Z,6.20
2019-03-21T20:36:36.407Z,6.10
2019-03-21T20:39:09.736Z,6.10
2019-03-21T20:41:40.496Z,6.20
2019-03-21T20:44:15.459Z,6.10
2019-03-21T20:46:48.671Z,6.10
2019-03-21T20:49:23.291Z,6.00
2019-03-21T20:51:59.212Z,6.00
2019-03-21T20:54:32.782Z,6.00
2019-03-21T20:57:04.243Z,6.00
2019-03-21T20:59:38.147Z,5.90
2019-03-21T21:02:13.739Z,5.80
2019-03-21T21:04:52.481Z,5.80
2019-03-21T21:07:27.527Z,5.70
2019-03-21T21:10:04.619Z,5.70
2019-03-21T21:12:39.107Z,5.60
2019-03-21T21:15:13.702Z,5.60
2019-03-21T21:17:45.502Z,5.60
2019-03-21T21:20:19.486Z,5.60
2019-03-21T21:22:53.921Z,5.50
2019-03-21T21:25:28.338Z,5.50
2019-03-21T21:28:06.921Z,5.50
2019-03-21T21:30:42.335Z,5.50
2019-03-21T21:33:16.995Z,5.40
2019-03-21T21:35:47.811Z,5.40
2019-03-21T21:38:28.389Z,5.30
2019-03-21T21:41:04.608Z,5.20
2019-03-21T21:43:42.056Z,5.10
2019-03-21T21:46:13.172Z,5.00
2019-03-21T21:48:46.758Z,4.90
2019-03-21T21:51:22.028Z,4.80
2019-03-21T21:53:53.943Z,4.80
2019-03-21T21:56:24.994Z,4.90
2019-03-21T21:58:56.463Z,4.90
2019-03-21T22:01:31.979Z,4.90
2019-03-21T22:04:06.414Z,4.90
2019-03-21T22:06:37.989Z,4.90
2019-03-21T22:09:12.970Z,4.90
2019-03-21T22:11:49.343Z,4.90
2019-03-21T22:14:21.107Z,5.00
2019-03-21T22:16:59.615Z,5.10
2019-03-21T22:19:33.991Z,5.10
2019-03-21T22:22:07.459Z,5.10
2019-03-21T22:24:40.688Z,5.10
2019-03-21T22:27:18.050Z,5.10
2019-03-21T22:29:50.403Z,5.10
2019-03-21T22:32:22.173Z,5.10
2019-03-21T22:34:52.404Z,5.10
2019-03-21T22:37:33.361Z,5.10
2019-03-21T22:40:07.327Z,5.10
2019-03-21T22:42:41.089Z,5.00
2019-03-21T22:45:17.776Z,5.00
2019-03-21T22:47:52.104Z,5.00
2019-03-21T22:50:27.496Z,5.00
2019-03-21T22:53:00.670Z,5.00
2019-03-21T22:55:34.143Z,5.00
2019-03-21T22:58:11.497Z,5.00
2019-03-21T23:00:48.271Z,5.10
2019-03-21T23:03:22.343Z,5.10
2019-03-21T23:05:57.407Z,5.20
2019-03-21T23:08:32.769Z,5.20
2019-03-21T23:11:07.040Z,5.10
2019-03-21T23:13:44.831Z,5.10
2019-03-21T23:16:24.131Z,5.00
2019-03-21T23:19:03.586Z,4.90
2019-03-21T23:21:37.766Z,4.80
2019-03-21T23:24:13.154Z,4.70
2019-03-21T23:26:53.188Z,4.70
2019-03-21T23:29:25.584Z,4.60
2019-03-21T23:31:59.871Z,4.60
2019-03-21T23:34:34.959Z,4.50
2019-03-21T23:37:06.451Z,4.50
2019-03-21T23:39:39.960Z,4.50
2019-03-21T23:42:13.771Z,4.50
2019-03-21T23:44:49.760Z,4.60
2019-03-21T23:47:27.905Z,4.60
2019-03-21T23:50:03.393Z,4.60
2019-03-21T23:52:41.580Z,4.60
2019-03-21T23:55:16.393Z,4.60
2019-03-21T23:57:49.923Z,4.60
